createdAt,value
2019-03-29T08:21:34.267Z,6.10
2019-03-29T08:24:01.169Z,7.47
2019-03-29T08:26:28.169Z,6.10
2019-03-29T08:28:55.160Z,6.13
2019-03-29T08:31:22.042Z,5.87
2019-03-29T08:33:48.699Z,6.47
2019-03-29T08:36:15.559Z,5.73
2019-03-29T08:38:42.419Z,5.60
2019-03-29T08:41:09.193Z,3.80
2019-03-29T08:43:35.955Z,5.77
2019-03-29T08:46:02.834Z,4.90
2019-03-29T08:48:29.680Z,5.50
2019-03-29T08:50:56.450Z,5.80
2019-03-29T08:53:23.205Z,5.00
2019-03-29T08:55:50.061Z,5.20
2019-03-29T08:58:17.041Z,5.77
2019-03-29T09:00:43.797Z,4.87
2019-03-29T09:03:10.673Z,5.43
2019-03-29T09:05:39.204Z,6.10
2019-03-29T09:08:06.126Z,4.43
2019-03-29T09:10:32.811Z,4.87
2019-03-29T09:12:59.546Z,5.07
2019-03-29T09:15:26.316Z,5.40
2019-03-29T09:17:53.096Z,5.07
2019-03-29T09:20:20.253Z,4.60
2019-03-29T09:22:47.074Z,5.23
2019-03-29T09:25:14.096Z,5.97
2019-03-29T09:27:40.837Z,5.90
2019-03-29T09:30:07.609Z,5.03
2019-03-29T09:32:34.436Z,5.10
2019-03-29T09:35:01.334Z,4.90
2019-03-29T09:37:28.215Z,5.20
2019-03-29T09:39:54.868Z,5.47
2019-03-29T09:42:28.976Z,5.37
2019-03-29T09:44:50.548Z,5.33
2019-03-29T09:47:17.298Z,5.50
2019-03-29T09:49:44.258Z,5.73
2019-03-29T09:52:11.136Z,6.20
2019-03-29T09:54:38.101Z,5.00
2019-03-29T09:57:04.781Z,5.30
2019-03-29T09:59:31.541Z,5.80
2019-03-29T10:01:58.175Z,5.67
2019-03-29T10:04:24.837Z,5.60
2019-03-29T10:06:51.717Z,5.17
2019-03-29T10:09:18.578Z,4.67
2019-03-29T10:11:45.532Z,5.12
2019-03-29T10:14:12.208Z,4.70
2019-03-29T10:16:38.853Z,4.03
2019-03-29T10:19:05.413Z,4.65
2019-03-29T10:21:34.131Z,4.15
2019-03-29T10:24:00.490Z,5.58
2019-03-29T10:26:27.399Z,5.53
2019-03-29T10:28:54.417Z,4.70
2019-03-29T10:31:32.054Z,4.30
2019-03-29T10:33:49.874Z,3.92
2019-03-29T10:36:16.955Z,4.03
2019-03-29T10:38:43.718Z,4.25
2019-03-29T10:41:10.568Z,4.05
2019-03-29T10:43:37.442Z,4.08
2019-03-29T10:46:03.991Z,3.67
2019-03-29T10:48:30.867Z,4.28
2019-03-29T10:50:57.622Z,3.40
2019-03-29T10:53:24.459Z,4.08
2019-03-29T10:55:51.254Z,3.50
2019-03-29T10:58:18.341Z,3.45
2019-03-29T11:00:45.181Z,3.98
2019-03-29T11:03:12.110Z,3.98
2019-03-29T11:05:38.915Z,4.85
2019-03-29T11:08:05.780Z,4.60
2019-03-29T11:10:32.435Z,3.80
2019-03-29T11:13:11.752Z,4.08
2019-03-29T11:15:27.912Z,3.47
2019-03-29T11:17:54.562Z,4.15
2019-03-29T11:20:21.330Z,4.05
2019-03-29T11:22:48.295Z,3.72
2019-03-29T11:25:15.055Z,4.58
2019-03-29T11:27:41.930Z,3.87
2019-03-29T11:30:08.483Z,3.98
2019-03-29T11:32:35.153Z,4.45
2019-03-29T11:35:02.212Z,4.22
2019-03-29T11:37:29.078Z,4.50
2019-03-29T11:39:55.956Z,4.78
2019-03-29T11:42:22.913Z,3.95
2019-03-29T11:44:49.769Z,4.67
2019-03-29T11:47:16.440Z,4.33
2019-03-29T11:49:43.460Z,3.75
2019-03-29T11:52:10.160Z,4.25
2019-03-29T11:54:36.836Z,4.40
2019-03-29T11:57:03.797Z,4.00
2019-03-29T11:59:30.454Z,4.97
2019-03-29T12:01:57.334Z,5.37
2019-03-29T12:04:24.344Z,3.83
2019-03-29T12:06:51.252Z,4.33
2019-03-29T12:09:18.018Z,4.37
2019-03-29T12:11:44.672Z,5.12
2019-03-29T12:14:11.542Z,4.33
2019-03-29T12:16:38.417Z,4.60
2019-03-29T12:19:05.331Z,4.67
2019-03-29T12:21:32.210Z,5.40
2019-03-29T12:23:59.144Z,4.67
2019-03-29T12:26:26.114Z,3.83
2019-03-29T12:28:53.034Z,4.65
2019-03-29T12:31:19.796Z,4.25
2019-03-29T12:33:46.466Z,5.10
2019-03-29T12:36:13.213Z,4.30
2019-03-29T12:38:39.883Z,4.58
2019-03-29T12:41:06.743Z,4.83
2019-03-29T12:43:33.505Z,5.37
2019-03-29T12:46:00.269Z,4.12
2019-03-29T12:48:27.208Z,3.90
2019-03-29T12:50:54.102Z,4.22
2019-03-29T12:53:20.972Z,3.65
2019-03-29T12:55:47.795Z,4.28
2019-03-29T12:58:14.785Z,5.00
2019-03-29T13:00:41.562Z,4.40
2019-03-29T13:03:08.229Z,4.45
2019-03-29T13:05:35.102Z,4.28
2019-03-29T13:08:01.858Z,4.55
2019-03-29T13:10:28.840Z,3.83
2019-03-29T13:12:55.593Z,4.03
2019-03-29T13:15:22.440Z,5.35
2019-03-29T13:17:49.121Z,4.50
2019-03-29T13:20:15.980Z,4.83
2019-03-29T13:22:42.878Z,4.90
2019-03-29T13:25:09.806Z,4.17
2019-03-29T13:27:36.576Z,4.17
2019-03-29T13:30:03.237Z,4.75
2019-03-29T13:32:33.189Z,3.98
2019-03-29T13:34:58.699Z,4.20
2019-03-29T13:37:25.763Z,3.92
2019-03-29T13:39:52.752Z,4.00
2019-03-29T13:42:19.594Z,4.17
2019-03-29T13:44:46.355Z,4.30
2019-03-29T13:47:13.228Z,5.03
2019-03-29T13:49:39.880Z,4.60
2019-03-29T13:52:06.746Z,4.67
2019-03-29T13:54:34.620Z,3.50
2019-03-29T13:57:01.289Z,3.90
2019-03-29T13:59:28.056Z,3.60
2019-03-29T14:01:54.815Z,3.25
2019-03-29T14:04:21.475Z,3.50
2019-03-29T14:06:48.353Z,4.10
2019-03-29T14:09:14.998Z,3.67
2019-03-29T14:11:41.673Z,4.60
2019-03-29T14:14:08.220Z,3.33
2019-03-29T14:16:34.809Z,4.08
2019-03-29T14:19:01.542Z,3.00
2019-03-29T14:21:28.381Z,3.90
2019-03-29T14:23:55.171Z,3.80
2019-03-29T14:26:21.738Z,3.50
2019-03-29T14:28:48.379Z,3.17
2019-03-29T14:31:15.157Z,2.92
2019-03-29T14:33:42.037Z,3.65
2019-03-29T14:36:08.783Z,3.75
2019-03-29T14:38:35.533Z,4.40
2019-03-29T14:41:02.309Z,3.65
2019-03-29T14:43:28.970Z,3.70
2019-03-29T14:45:55.620Z,4.60
2019-03-29T14:48:22.406Z,4.40
2019-03-29T14:50:49.415Z,4.22
2019-03-29T14:53:16.315Z,3.47
2019-03-29T14:55:42.875Z,3.30
2019-03-29T14:58:09.755Z,3.95
2019-03-29T15:00:36.518Z,3.95
2019-03-29T15:03:03.366Z,3.70
2019-03-29T15:05:30.249Z,3.60
2019-03-29T15:07:57.146Z,3.70
2019-03-29T15:10:23.970Z,3.90
2019-03-29T15:12:50.859Z,3.80
2019-03-29T15:15:17.694Z,3.20
2019-03-29T15:17:44.553Z,3.52
2019-03-29T15:20:11.113Z,3.02
2019-03-29T15:22:37.774Z,3.22
2019-03-29T15:25:04.641Z,2.95
2019-03-29T15:27:31.519Z,2.98
2019-03-29T15:29:58.284Z,3.05
2019-03-29T15:32:25.140Z,3.25
2019-03-29T15:34:51.978Z,3.00
2019-03-29T15:37:18.762Z,3.20
2019-03-29T15:39:45.541Z,3.25
2019-03-29T15:42:12.432Z,2.90
2019-03-29T15:44:39.373Z,3.85
2019-03-29T15:47:06.121Z,3.10
2019-03-29T15:49:32.986Z,3.72
2019-03-29T15:51:59.993Z,3.30
2019-03-29T15:54:26.916Z,2.72
2019-03-29T15:56:53.698Z,3.52
2019-03-29T15:59:20.651Z,3.62
2019-03-29T16:01:47.408Z,3.50
2019-03-29T16:04:14.170Z,3.60
2019-03-29T16:06:40.842Z,3.40
2019-03-29T16:09:07.606Z,4.00
2019-03-29T16:11:34.563Z,3.60
2019-03-29T16:14:01.431Z,3.70
2019-03-29T16:16:28.400Z,4.03
2019-03-29T16:18:55.217Z,3.85
2019-03-29T16:21:22.136Z,3.60
2019-03-29T16:23:48.781Z,3.12
2019-03-29T16:26:15.437Z,3.98
2019-03-29T16:28:42.415Z,3.70
2019-03-29T16:31:09.176Z,3.87
2019-03-29T16:33:35.841Z,3.20
2019-03-29T16:36:02.697Z,4.22
2019-03-29T16:38:29.472Z,4.65
2019-03-29T16:40:56.237Z,3.65
2019-03-29T16:43:23.136Z,3.40
2019-03-29T16:45:50.163Z,3.72
2019-03-29T16:48:16.924Z,4.70
2019-03-29T16:50:43.603Z,3.87
2019-03-29T16:53:10.506Z,4.30
2019-03-29T16:55:37.205Z,5.10
2019-03-29T16:58:03.864Z,4.55
2019-03-29T17:00:30.739Z,5.28
2019-03-29T17:02:57.392Z,4.92
2019-03-29T17:05:24.154Z,5.58
2019-03-29T17:07:50.821Z,4.42
2019-03-29T17:10:17.471Z,4.90
2019-03-29T17:12:44.138Z,4.50
2019-03-29T17:15:10.797Z,6.70
2019-03-29T17:17:37.557Z,4.92
2019-03-29T17:20:04.538Z,4.40
2019-03-29T17:22:31.382Z,4.35
2019-03-29T17:24:58.359Z,5.03
2019-03-29T17:27:25.019Z,6.33
2019-03-29T17:29:51.585Z,6.25
2019-03-29T17:32:21.424Z,6.95
2019-03-29T17:34:47.055Z,7.15
2019-03-29T17:37:13.955Z,5.22
2019-03-29T17:39:40.774Z,5.42
2019-03-29T17:42:07.713Z,5.42
2019-03-29T17:44:34.408Z,5.50
2019-03-29T17:47:01.376Z,5.40
2019-03-29T17:49:28.041Z,5.40
2019-03-29T17:51:54.899Z,5.45
2019-03-29T17:54:21.659Z,6.33
2019-03-29T17:56:48.322Z,6.12
2019-03-29T17:59:15.224Z,4.65
2019-03-29T18:01:41.949Z,5.70
2019-03-29T18:04:08.704Z,5.22
2019-03-29T18:06:35.482Z,5.42
2019-03-29T18:09:02.246Z,4.80
2019-03-29T18:11:28.904Z,4.92
2019-03-29T18:13:55.762Z,5.75
2019-03-29T18:16:30.435Z,4.95
2019-03-29T18:18:50.990Z,4.83
2019-03-29T18:21:17.789Z,4.83
2019-03-29T18:23:44.753Z,4.67
2019-03-29T18:26:11.623Z,4.45
2019-03-29T18:28:38.388Z,5.45
2019-03-29T18:31:05.038Z,6.10
2019-03-29T18:33:31.819Z,4.75
2019-03-29T18:35:58.459Z,4.90
2019-03-29T18:38:25.230Z,5.25
2019-03-29T18:40:52.031Z,5.45
2019-03-29T18:43:18.739Z,5.70
2019-03-29T18:45:45.407Z,5.83
2019-03-29T18:48:12.273Z,6.08
2019-03-29T18:50:38.845Z,6.95
2019-03-29T18:53:05.611Z,6.40
2019-03-29T18:55:32.178Z,5.67
2019-03-29T18:57:58.916Z,5.25
2019-03-29T19:00:25.482Z,5.55
2019-03-29T19:02:52.230Z,5.97
2019-03-29T19:05:18.906Z,5.40
2019-03-29T19:07:45.707Z,5.03
2019-03-29T19:10:12.627Z,5.00
2019-03-29T19:12:39.393Z,5.40
2019-03-29T19:15:06.253Z,5.55
2019-03-29T19:17:32.911Z,5.20
2019-03-29T19:19:59.569Z,5.20
2019-03-29T19:22:26.352Z,6.22
2019-03-29T19:24:53.309Z,5.80
2019-03-29T19:27:20.174Z,5.83
2019-03-29T19:29:47.234Z,4.80
2019-03-29T19:32:14.205Z,5.85
2019-03-29T19:34:41.085Z,5.65
2019-03-29T19:37:07.748Z,5.55
2019-03-29T19:39:34.589Z,4.60
2019-03-29T19:42:01.163Z,5.15
2019-03-29T19:44:28.013Z,5.67
2019-03-29T19:46:54.788Z,6.28
2019-03-29T19:49:21.648Z,10.10
2019-03-29T19:51:48.311Z,7.20
2019-03-29T19:54:15.171Z,6.28
2019-03-29T19:56:42.154Z,5.50
2019-03-29T19:59:08.914Z,6.60
2019-03-29T20:01:35.770Z,6.25
2019-03-29T20:04:02.633Z,6.40
2019-03-29T20:06:29.388Z,6.80
2019-03-29T20:08:56.671Z,7.53
2019-03-29T20:11:23.236Z,7.45
2019-03-29T20:13:50.089Z,6.75
2019-03-29T20:16:16.997Z,6.90
2019-03-29T20:18:43.935Z,5.97
2019-03-29T20:21:10.893Z,6.85
2019-03-29T20:23:37.459Z,7.08
2019-03-29T20:26:04.419Z,6.12
2019-03-29T20:28:31.070Z,13.18
2019-03-29T20:30:57.848Z,11.28
2019-03-29T20:33:24.603Z,8.25
2019-03-29T20:35:51.489Z,8.55
2019-03-29T20:38:18.133Z,7.60
2019-03-29T20:40:44.874Z,8.78
2019-03-29T20:43:11.749Z,7.53
2019-03-29T20:45:38.408Z,7.83
2019-03-29T20:48:04.977Z,7.83
2019-03-29T20:50:31.729Z,7.45
2019-03-29T20:52:58.608Z,6.75
2019-03-29T20:55:25.268Z,6.62
2019-03-29T20:57:52.028Z,7.62
2019-03-29T21:00:18.676Z,7.03
2019-03-29T21:02:45.349Z,7.45
2019-03-29T21:05:13.330Z,7.92
2019-03-29T21:07:39.991Z,8.28
2019-03-29T21:10:06.749Z,8.65
2019-03-29T21:12:33.488Z,10.63
2019-03-29T21:15:00.382Z,10.40
2019-03-29T21:17:27.303Z,10.45
2019-03-29T21:19:54.208Z,9.78
2019-03-29T21:22:20.885Z,9.30
2019-03-29T21:24:47.627Z,8.83
2019-03-29T21:27:14.504Z,8.60
2019-03-29T21:29:41.471Z,9.10
2019-03-29T21:32:08.232Z,7.67
2019-03-29T21:34:34.996Z,7.35
2019-03-29T21:37:01.861Z,8.05
2019-03-29T21:39:31.225Z,7.70
2019-03-29T21:41:57.638Z,7.45
2019-03-29T21:44:24.188Z,7.30
2019-03-29T21:46:50.850Z,8.50
2019-03-29T21:49:17.719Z,7.47
2019-03-29T21:51:44.678Z,8.08
